createdAt,value
2017-02-22T00:00:18.114Z,6.2
2017-02-22T00:00:36.752Z,6.2
2017-02-22T00:00:55.393Z,6.2
2017-02-22T00:01:14.024Z,6.2
2017-02-22T00:01:32.723Z,6.2
2017-02-22T00:01:51.372Z,6.2
2017-02-22T00:02:10.022Z,6.2
2017-02-22T00:02:28.667Z,6.2
2017-02-22T00:02:47.309Z,6.2
2017-02-22T00:03:05.950Z,6.2
2017-02-22T00:03:24.604Z,6.2
2017-02-22T00:03:43.246Z,6.2
2017-02-22T00:04:01.895Z,6.2
2017-02-22T00:04:20.544Z,6.2
2017-02-22T00:04:39.207Z,6.2
2017-02-22T00:04:57.847Z,6.3
2017-02-22T00:05:16.486Z,6.3
2017-02-22T00:05:35.126Z,6.3
2017-02-22T00:05:53.773Z,6.3
2017-02-22T00:06:12.417Z,6.3
2017-02-22T00:06:31.054Z,6.3
2017-02-22T00:06:49.709Z,6.3
2017-02-22T00:07:08.345Z,6.3
2017-02-22T00:07:26.978Z,6.3
2017-02-22T00:07:45.617Z,6.3
2017-02-22T00:08:04.295Z,6.3
2017-02-22T00:08:22.932Z,6.3
2017-02-22T00:08:41.570Z,6.3
2017-02-22T00:09:00.209Z,6.3
2017-02-22T00:09:18.849Z,6.3
2017-02-22T00:09:37.507Z,6.3
2017-02-22T00:09:56.157Z,6.3
2017-02-22T00:10:14.799Z,6.4
2017-02-22T00:10:33.443Z,6.4
2017-02-22T00:10:52.082Z,6.4
2017-02-22T00:11:10.723Z,6.4
2017-02-22T00:11:29.386Z,6.4
2017-02-22T00:11:48.026Z,6.4
2017-02-22T00:12:06.678Z,6.4
2017-02-22T00:12:25.326Z,6.5
2017-02-22T00:12:43.988Z,6.4
2017-02-22T00:13:02.672Z,6.5
2017-02-22T00:13:21.320Z,6.5
2017-02-22T00:13:39.957Z,6.5
2017-02-22T00:13:58.597Z,6.5
2017-02-22T00:14:17.245Z,6.5
2017-02-22T00:14:35.888Z,6.5
2017-02-22T00:14:54.529Z,6.4
2017-02-22T00:15:13.186Z,6.4
2017-02-22T00:15:31.828Z,6.4
2017-02-22T00:15:50.466Z,6.4
2017-02-22T00:16:09.128Z,6.4
2017-02-22T00:16:27.768Z,6.3
2017-02-22T00:16:46.428Z,6.3
2017-02-22T00:17:05.068Z,6.3
2017-02-22T00:17:23.715Z,6.3
2017-02-22T00:17:42.357Z,6.3
2017-02-22T00:18:01.014Z,6.3
2017-02-22T00:18:19.651Z,6.3
2017-02-22T00:18:38.291Z,6.3
2017-02-22T00:18:56.940Z,6.3
2017-02-22T00:19:15.581Z,6.3
2017-02-22T00:19:34.246Z,6.3
2017-02-22T00:19:52.885Z,6.3
2017-02-22T00:20:11.527Z,6.3
2017-02-22T00:20:30.162Z,6.3
2017-02-22T00:20:48.797Z,6.3
2017-02-22T00:21:07.436Z,6.2
2017-02-22T00:21:26.069Z,6.2
2017-02-22T00:21:44.707Z,6.2
2017-02-22T00:22:03.350Z,6.3
2017-02-22T00:22:21.988Z,6.3
2017-02-22T00:22:40.636Z,6.3
2017-02-22T00:22:59.309Z,6.3
2017-02-22T00:23:17.951Z,6.3
2017-02-22T00:23:36.598Z,6.3
2017-02-22T00:23:55.235Z,6.3
2017-02-22T00:24:13.877Z,6.3
2017-02-22T00:24:32.524Z,6.3
2017-02-22T00:24:51.171Z,6.3
2017-02-22T00:25:09.810Z,6.3
2017-02-22T00:25:28.447Z,6.3
2017-02-22T00:25:47.087Z,6.3
2017-02-22T00:26:05.727Z,6.3
2017-02-22T00:26:24.398Z,6.3
2017-02-22T00:26:43.051Z,6.4
2017-02-22T00:27:01.692Z,6.4
2017-02-22T00:27:20.342Z,6.4
2017-02-22T00:27:38.979Z,6.5
2017-02-22T00:27:57.682Z,6.5
2017-02-22T00:28:16.318Z,6.6
2017-02-22T00:28:34.956Z,6.6
2017-02-22T00:28:53.602Z,6.6
2017-02-22T00:29:12.241Z,6.6
2017-02-22T00:29:30.879Z,6.6
2017-02-22T00:29:49.514Z,6.7
2017-02-22T00:30:08.155Z,6.7
2017-02-22T00:30:26.796Z,6.7
2017-02-22T00:30:45.432Z,6.7
2017-02-22T00:31:04.090Z,6.7
2017-02-22T00:31:22.735Z,6.7
2017-02-22T00:31:41.388Z,6.7
2017-02-22T00:32:00.039Z,6.7
2017-02-22T00:32:18.682Z,6.7
2017-02-22T00:32:37.323Z,6.8
2017-02-22T00:32:55.960Z,6.8
2017-02-22T00:33:14.610Z,6.8
2017-02-22T00:33:33.258Z,6.8
2017-02-22T00:33:51.895Z,6.8
2017-02-22T00:34:10.532Z,6.8
2017-02-22T00:34:29.191Z,6.8
2017-02-22T00:34:47.833Z,6.8
2017-02-22T00:35:06.470Z,6.8
2017-02-22T00:35:25.114Z,6.7
2017-02-22T00:35:43.762Z,6.8
2017-02-22T00:36:02.397Z,6.8
2017-02-22T00:36:21.039Z,6.8
2017-02-22T00:36:39.679Z,6.8
2017-02-22T00:36:58.318Z,6.8
2017-02-22T00:37:16.955Z,6.8
2017-02-22T00:37:35.608Z,6.8
2017-02-22T00:37:54.275Z,6.8
2017-02-22T00:38:12.922Z,6.8
2017-02-22T00:38:31.586Z,6.8
2017-02-22T00:38:50.228Z,6.8
2017-02-22T00:39:08.874Z,6.8
2017-02-22T00:39:27.523Z,6.8
2017-02-22T00:39:46.170Z,6.8
2017-02-22T00:40:04.811Z,6.8
2017-02-22T00:40:23.455Z,6.8
2017-02-22T00:40:42.093Z,6.8
2017-02-22T00:41:00.731Z,6.8
2017-02-22T00:41:19.399Z,6.8
2017-02-22T00:41:38.046Z,6.8
2017-02-22T00:41:56.685Z,6.8
2017-02-22T00:42:15.328Z,6.8
2017-02-22T00:42:33.964Z,6.8
2017-02-22T00:42:52.634Z,6.8
2017-02-22T00:43:11.274Z,6.8
2017-02-22T00:43:29.916Z,6.8
2017-02-22T00:43:48.564Z,6.8
2017-02-22T00:44:07.203Z,6.8
2017-02-22T00:44:25.865Z,6.8
2017-02-22T00:44:44.519Z,6.8
2017-02-22T00:45:03.159Z,6.8
2017-02-22T00:45:21.817Z,6.8
2017-02-22T00:45:40.457Z,6.8
2017-02-22T00:45:59.115Z,6.8
2017-02-22T00:46:17.756Z,6.8
2017-02-22T00:46:36.394Z,6.8
2017-02-22T00:46:55.038Z,6.8
2017-02-22T00:47:13.690Z,6.8
2017-02-22T00:47:32.337Z,6.8
2017-02-22T00:47:50.976Z,6.8
2017-02-22T00:48:09.619Z,6.8
2017-02-22T00:48:28.255Z,6.8
2017-02-22T00:48:46.892Z,6.8
2017-02-22T00:49:05.551Z,6.8
2017-02-22T00:49:24.221Z,6.8
2017-02-22T00:49:42.859Z,6.8
2017-02-22T00:50:01.499Z,6.8
2017-02-22T00:50:20.137Z,6.8
2017-02-22T00:50:38.777Z,6.8
2017-02-22T00:50:57.415Z,6.8
2017-02-22T00:51:16.056Z,6.8
2017-02-22T00:51:34.708Z,6.8
2017-02-22T00:51:53.345Z,6.8
2017-02-22T00:52:11.999Z,6.8
2017-02-22T00:52:30.646Z,6.8
2017-02-22T00:52:49.313Z,6.8
2017-02-22T00:53:07.949Z,6.8
2017-02-22T00:53:26.585Z,6.8
2017-02-22T00:53:45.232Z,6.8
2017-02-22T00:54:03.870Z,6.8
2017-02-22T00:54:22.519Z,6.8
2017-02-22T00:54:41.167Z,6.8
2017-02-22T00:54:59.808Z,6.8
2017-02-22T00:55:18.459Z,6.8
2017-02-22T00:55:37.093Z,6.7
2017-02-22T00:55:55.736Z,6.8
2017-02-22T00:56:14.412Z,6.7
2017-02-22T00:56:33.049Z,6.7
2017-02-22T00:56:51.690Z,6.7
2017-02-22T00:57:10.330Z,6.7
2017-02-22T00:57:28.978Z,6.7
2017-02-22T00:57:47.669Z,6.7
2017-02-22T00:58:06.311Z,6.7
2017-02-22T00:58:24.959Z,6.7
2017-02-22T00:58:43.600Z,6.7
2017-02-22T00:59:02.236Z,6.7
2017-02-22T00:59:20.874Z,6.7
2017-02-22T00:59:39.534Z,6.7
2017-02-22T00:59:58.170Z,6.6
2017-02-22T01:00:16.814Z,6.6
2017-02-22T01:00:35.456Z,6.6
2017-02-22T01:00:54.126Z,6.6
2017-02-22T01:01:12.772Z,6.6
2017-02-22T01:01:31.415Z,6.5
2017-02-22T01:01:50.064Z,6.5
2017-02-22T01:02:08.714Z,6.5
2017-02-22T01:02:27.370Z,6.5
2017-02-22T01:02:46.024Z,6.5
2017-02-22T01:03:04.666Z,6.5
2017-02-22T01:03:23.305Z,6.5
2017-02-22T01:03:41.941Z,6.5
2017-02-22T01:04:00.579Z,6.5
2017-02-22T01:04:19.262Z,6.4
2017-02-22T01:04:37.906Z,6.4
2017-02-22T01:04:56.558Z,6.4
2017-02-22T01:05:15.192Z,6.4
2017-02-22T01:05:33.837Z,6.4
2017-02-22T01:05:52.478Z,6.4
2017-02-22T01:06:11.117Z,6.4
2017-02-22T01:06:29.758Z,6.4
2017-02-22T01:06:48.397Z,6.4
2017-02-22T01:07:07.039Z,6.4
2017-02-22T01:07:25.676Z,6.4
2017-02-22T01:07:44.340Z,6.4
2017-02-22T01:08:02.973Z,6.4
2017-02-22T01:08:21.611Z,6.5
2017-02-22T01:08:40.256Z,6.5
2017-02-22T01:08:58.910Z,6.5
2017-02-22T01:09:17.569Z,6.5
2017-02-22T01:09:36.220Z,6.5
2017-02-22T01:09:54.865Z,6.5
2017-02-22T01:10:13.526Z,6.6
2017-02-22T01:10:32.175Z,6.6
2017-02-22T01:10:50.819Z,6.6
2017-02-22T01:11:09.462Z,6.6
2017-02-22T01:11:28.103Z,6.6
2017-02-22T01:11:46.745Z,6.6
2017-02-22T01:12:05.393Z,6.7
2017-02-22T01:12:24.027Z,6.7
2017-02-22T01:12:42.721Z,6.7
2017-02-22T01:13:01.360Z,6.7
2017-02-22T01:13:20.009Z,6.7
2017-02-22T01:13:38.647Z,6.8
2017-02-22T01:13:57.282Z,6.8
2017-02-22T01:14:15.930Z,6.8
2017-02-22T01:14:34.568Z,6.8
2017-02-22T01:14:53.211Z,6.8
2017-02-22T01:15:11.852Z,6.8
2017-02-22T01:15:30.500Z,6.8
2017-02-22T01:15:49.172Z,6.8
2017-02-22T01:16:07.811Z,6.8
2017-02-22T01:16:26.456Z,6.8
2017-02-22T01:16:45.091Z,6.8
2017-02-22T01:17:03.739Z,6.8
2017-02-22T01:17:22.388Z,6.8
2017-02-22T01:17:41.040Z,6.9
2017-02-22T01:17:59.684Z,6.9
2017-02-22T01:18:18.331Z,6.9
2017-02-22T01:18:36.973Z,6.9
2017-02-22T01:18:55.629Z,6.9
2017-02-22T01:19:14.293Z,6.9
2017-02-22T01:19:32.930Z,7
2017-02-22T01:19:51.570Z,7
2017-02-22T01:20:10.208Z,7
2017-02-22T01:20:28.841Z,7
2017-02-22T01:20:47.499Z,7
2017-02-22T01:21:06.143Z,7
2017-02-22T01:21:24.782Z,7
2017-02-22T01:21:43.429Z,7
2017-02-22T01:22:02.073Z,7
2017-02-22T01:22:20.731Z,7
2017-02-22T01:22:39.414Z,7
2017-02-22T01:22:58.053Z,7
2017-02-22T01:23:16.691Z,7
2017-02-22T01:23:35.332Z,7
2017-02-22T01:23:53.969Z,7
2017-02-22T01:24:12.662Z,7
2017-02-22T01:24:31.310Z,7
2017-02-22T01:24:49.952Z,7
2017-02-22T01:25:08.590Z,7
2017-02-22T01:25:27.232Z,7
2017-02-22T01:25:45.869Z,6.9
2017-02-22T01:26:04.510Z,6.9
2017-02-22T01:26:23.150Z,6.9
2017-02-22T01:26:41.789Z,6.9
2017-02-22T01:27:00.430Z,6.9
2017-02-22T01:27:19.080Z,6.9
2017-02-22T01:27:37.733Z,6.9
2017-02-22T01:27:56.384Z,6.9
2017-02-22T01:28:15.042Z,6.9
2017-02-22T01:28:33.692Z,6.9
2017-02-22T01:28:52.343Z,6.9
2017-02-22T01:29:10.979Z,6.9
2017-02-22T01:29:29.624Z,6.9
2017-02-22T01:29:48.266Z,6.9
2017-02-22T01:30:06.904Z,6.9
2017-02-22T01:30:25.549Z,6.9
2017-02-22T01:30:44.221Z,6.9
2017-02-22T01:31:02.859Z,6.9
2017-02-22T01:31:21.508Z,6.9
2017-02-22T01:31:40.164Z,6.9
2017-02-22T01:31:58.802Z,6.9
2017-02-22T01:32:17.438Z,6.9
2017-02-22T01:32:36.075Z,6.9
2017-02-22T01:32:54.737Z,6.9
2017-02-22T01:33:13.386Z,6.9
2017-02-22T01:33:32.039Z,7
2017-02-22T01:33:50.681Z,7
2017-02-22T01:34:09.346Z,7
2017-02-22T01:34:27.989Z,6.9
2017-02-22T01:34:46.635Z,7
2017-02-22T01:35:05.287Z,7
2017-02-22T01:35:23.941Z,7
2017-02-22T01:35:42.586Z,7
2017-02-22T01:36:01.231Z,7
2017-02-22T01:36:19.874Z,7
2017-02-22T01:36:38.519Z,7
2017-02-22T01:36:57.157Z,7
2017-02-22T01:37:15.804Z,7
2017-02-22T01:37:34.447Z,6.9
2017-02-22T01:37:53.083Z,7
2017-02-22T01:38:11.725Z,7
2017-02-22T01:38:30.375Z,6.9
2017-02-22T01:38:49.022Z,6.9
2017-02-22T01:39:07.709Z,7
2017-02-22T01:39:26.349Z,7
2017-02-22T01:39:44.999Z,6.9
2017-02-22T01:40:03.643Z,6.9
2017-02-22T01:40:22.286Z,6.9
2017-02-22T01:40:40.927Z,6.9
2017-02-22T01:40:59.568Z,7
2017-02-22T01:41:18.209Z,7
2017-02-22T01:41:36.855Z,7
2017-02-22T01:41:55.503Z,7
2017-02-22T01:42:14.166Z,7
2017-02-22T01:42:32.811Z,7
2017-02-22T01:42:51.451Z,7
2017-02-22T01:43:10.087Z,7
2017-02-22T01:43:28.725Z,7
2017-02-22T01:43:47.369Z,7
2017-02-22T01:44:06.006Z,7
2017-02-22T01:44:24.649Z,7
2017-02-22T01:44:43.291Z,7
2017-02-22T01:45:01.928Z,7
2017-02-22T01:45:20.581Z,7
2017-02-22T01:45:39.257Z,7
2017-02-22T01:45:57.891Z,7
2017-02-22T01:46:16.546Z,7
2017-02-22T01:46:35.185Z,7
2017-02-22T01:46:53.820Z,7
2017-02-22T01:47:12.478Z,7
2017-02-22T01:47:31.118Z,7
2017-02-22T01:47:49.756Z,7
2017-02-22T01:48:08.397Z,7
2017-02-22T01:48:27.039Z,7
2017-02-22T01:48:45.678Z,7
2017-02-22T01:49:04.343Z,7
2017-02-22T01:49:22.985Z,7
2017-02-22T01:49:41.626Z,7
2017-02-22T01:50:00.266Z,7
2017-02-22T01:50:18.906Z,7
2017-02-22T01:50:37.546Z,7
2017-02-22T01:50:56.199Z,7
2017-02-22T01:51:14.836Z,7
2017-02-22T01:51:33.473Z,7
2017-02-22T01:51:52.111Z,7
2017-02-22T01:52:10.753Z,7
2017-02-22T01:52:29.435Z,7
2017-02-22T01:52:48.079Z,7
2017-02-22T01:53:06.722Z,7
2017-02-22T01:53:25.362Z,7
2017-02-22T01:53:43.999Z,7
2017-02-22T01:54:02.674Z,7
2017-02-22T01:54:21.316Z,7
2017-02-22T01:54:39.955Z,7
2017-02-22T01:54:58.596Z,7
2017-02-22T01:55:17.238Z,7
2017-02-22T01:55:35.878Z,7
2017-02-22T01:55:54.518Z,7
2017-02-22T01:56:13.157Z,7
2017-02-22T01:56:31.796Z,7.1
2017-02-22T01:56:50.447Z,7.1
2017-02-22T01:57:09.099Z,7.1
2017-02-22T01:57:27.750Z,7.1
2017-02-22T01:57:46.395Z,7.1
2017-02-22T01:58:05.040Z,7.1
2017-02-22T01:58:23.677Z,7.1
2017-02-22T01:58:42.318Z,7.1
2017-02-22T01:59:00.953Z,7.1
2017-02-22T01:59:19.593Z,7.1
2017-02-22T01:59:38.233Z,7.1
2017-02-22T01:59:56.876Z,7.1
2017-02-22T02:00:15.516Z,7.1
2017-02-22T02:00:34.174Z,7.1
2017-02-22T02:00:52.813Z,7
2017-02-22T02:01:11.450Z,7
2017-02-22T02:01:30.101Z,7
2017-02-22T02:01:48.736Z,7
2017-02-22T02:02:07.380Z,7
2017-02-22T02:02:26.021Z,7
2017-02-22T02:02:44.669Z,7
2017-02-22T02:03:03.332Z,7
2017-02-22T02:03:21.978Z,7
2017-02-22T02:03:40.621Z,7
2017-02-22T03:43:49.935Z,7.1
2017-02-22T03:44:08.577Z,7.1
2017-02-22T03:44:27.214Z,7.1
2017-02-22T03:44:45.857Z,7.1
2017-02-22T03:45:04.498Z,7.1
2017-02-22T03:45:23.144Z,7.1
2017-02-22T03:45:41.791Z,7.1
2017-02-22T03:46:00.431Z,7.1
2017-02-22T03:46:19.102Z,7.1
2017-02-22T03:46:37.749Z,7.1
2017-02-22T03:46:56.388Z,7.1
2017-02-22T03:47:15.033Z,7.1
2017-02-22T03:47:33.673Z,7.1
2017-02-22T03:47:52.320Z,7.1
2017-02-22T03:48:10.963Z,7.1
2017-02-22T03:48:29.603Z,7.1
2017-02-22T03:48:48.266Z,7.1
2017-02-22T03:49:06.930Z,7.1
2017-02-22T03:49:25.574Z,7.1
2017-02-22T03:49:44.244Z,7.1
2017-02-22T03:50:02.889Z,7.1
2017-02-22T03:50:21.535Z,7.1
2017-02-22T03:50:40.178Z,7.1
2017-02-22T03:50:58.814Z,7.1
2017-02-22T03:51:17.454Z,7.1
2017-02-22T03:51:36.089Z,7.1
2017-02-22T03:51:54.731Z,7.1
2017-02-22T03:52:13.372Z,7.1
2017-02-22T03:52:32.011Z,7.1
2017-02-22T03:52:50.657Z,7.1
2017-02-22T03:53:09.327Z,7.1
2017-02-22T03:53:27.969Z,7.1
2017-02-22T03:53:46.608Z,7.1
2017-02-22T03:54:05.248Z,7.1
2017-02-22T03:54:23.891Z,7.1
2017-02-22T03:54:42.530Z,7.1
2017-02-22T03:55:01.173Z,7.1
2017-02-22T03:55:19.820Z,7.1
2017-02-22T03:55:38.458Z,7.1
2017-02-22T03:55:57.096Z,7.1
2017-02-22T03:56:15.739Z,7.1
2017-02-22T03:56:34.413Z,7.1
2017-02-22T03:56:53.049Z,7.1
2017-02-22T03:57:11.683Z,7.1
2017-02-22T03:57:30.324Z,7.1
2017-02-22T03:57:48.962Z,7.1
2017-02-22T03:58:07.631Z,7.1
2017-02-22T03:58:26.277Z,7.1
2017-02-22T03:58:44.915Z,7.1
2017-02-22T03:59:03.565Z,7.1
2017-02-22T03:59:22.208Z,7.1
2017-02-22T03:59:40.872Z,7.1
2017-02-22T03:59:59.527Z,7.1
2017-02-22T04:00:18.157Z,7.1
2017-02-22T04:00:36.795Z,7.1
2017-02-22T04:00:55.439Z,7.1
2017-02-22T04:01:14.088Z,7.1
2017-02-22T04:01:32.741Z,7.1
2017-02-22T04:01:51.388Z,7.1
2017-02-22T04:02:10.028Z,7.1
2017-02-22T04:02:28.677Z,7.1
2017-02-22T04:02:47.316Z,7.1
2017-02-22T04:03:05.959Z,7.1
2017-02-22T04:03:24.608Z,7.1
2017-02-22T04:03:43.243Z,7.1
2017-02-22T04:04:01.883Z,7.1
2017-02-22T04:04:20.516Z,7.1
2017-02-22T04:04:39.180Z,7.1
2017-02-22T04:04:57.839Z,7.1
2017-02-22T04:05:16.479Z,7.1
2017-02-22T04:05:35.132Z,7.1
2017-02-22T04:05:53.779Z,7.1
2017-02-22T04:06:12.418Z,7.1
2017-02-22T04:06:31.063Z,7.1
2017-02-22T04:06:49.721Z,7.1
2017-02-22T04:07:08.367Z,7.1
2017-02-22T04:07:27.015Z,7.1
2017-02-22T04:07:45.664Z,7.1
2017-02-22T04:08:04.332Z,7.1
2017-02-22T04:08:22.969Z,7.1
2017-02-22T04:08:41.607Z,7.1
2017-02-22T04:09:00.252Z,7.1
2017-02-22T04:09:18.894Z,7.1
2017-02-22T04:09:37.536Z,7.1
2017-02-22T04:09:56.176Z,7.2
2017-02-22T04:10:14.832Z,7.1
2017-02-22T04:10:33.471Z,7.1
2017-02-22T04:10:52.119Z,7.1
2017-02-22T04:11:10.761Z,7.1
2017-02-22T04:11:29.428Z,7.2
2017-02-22T04:11:48.075Z,7.2
2017-02-22T04:12:06.721Z,7.2
2017-02-22T04:12:25.372Z,7.1
2017-02-22T04:12:44.006Z,7.2
2017-02-22T04:13:02.692Z,7.2
2017-02-22T04:13:21.334Z,7.2
2017-02-22T04:13:39.983Z,7.2
2017-02-22T04:13:58.620Z,7.2
2017-02-22T04:14:17.280Z,7.2
2017-02-22T04:14:35.924Z,7.2
2017-02-22T04:14:54.575Z,7.2
2017-02-22T04:15:13.223Z,7.2
2017-02-22T04:15:31.873Z,7.2
2017-02-22T04:15:50.511Z,7.2
2017-02-22T04:16:09.179Z,7.2
2017-02-22T04:16:27.828Z,7.2
2017-02-22T04:16:46.465Z,7.2
2017-02-22T04:17:05.115Z,7.2
2017-02-22T04:17:23.771Z,7.2
2017-02-22T04:17:42.418Z,7.2
2017-02-22T04:18:01.064Z,7.2
2017-02-22T04:18:19.703Z,7.2
2017-02-22T04:18:38.345Z,7.2
2017-02-22T04:18:56.987Z,7.2
2017-02-22T04:19:15.629Z,7.2
2017-02-22T04:19:34.308Z,7.2
2017-02-22T04:19:52.949Z,7.2
2017-02-22T04:20:11.587Z,7.2
2017-02-22T04:20:30.242Z,7.2
2017-02-22T04:20:48.888Z,7.2
2017-02-22T04:21:07.528Z,7.2
2017-02-22T04:21:26.172Z,7.2
2017-02-22T04:21:44.809Z,7.2
2017-02-22T04:22:03.445Z,7.2
2017-02-22T04:22:22.084Z,7.2
2017-02-22T04:22:40.729Z,7.2
2017-02-22T04:22:59.407Z,7.2
2017-02-22T04:23:18.045Z,7.2
2017-02-22T04:23:36.680Z,7.2
2017-02-22T04:23:55.321Z,7.2
2017-02-22T04:24:13.971Z,7.2
2017-02-22T04:24:32.674Z,7.2
2017-02-22T04:24:51.323Z,7.2
2017-02-22T04:25:09.961Z,7.2
2017-02-22T04:25:28.609Z,7.2
2017-02-22T04:25:47.251Z,7.2
2017-02-22T04:26:05.912Z,7.2
2017-02-22T04:26:24.549Z,7.2
2017-02-22T04:26:43.187Z,7.2
2017-02-22T04:27:01.838Z,7.2
2017-02-22T04:27:20.478Z,7.2
2017-02-22T04:27:39.134Z,7.2
2017-02-22T04:27:57.785Z,7.2
2017-02-22T04:28:16.429Z,7.2
2017-02-22T04:28:35.068Z,7.2
2017-02-22T04:28:53.707Z,7.2
2017-02-22T04:29:12.343Z,7.2
2017-02-22T04:29:31.016Z,7.2
2017-02-22T04:29:49.661Z,7.2
2017-02-22T04:30:08.301Z,7.2
2017-02-22T04:30:26.947Z,7.3
2017-02-22T04:30:45.586Z,7.3
2017-02-22T04:31:04.259Z,7.3
2017-02-22T04:31:22.912Z,7.3
2017-02-22T04:31:41.558Z,7.3
2017-02-22T04:32:00.193Z,7.3
2017-02-22T04:32:18.828Z,7.3
2017-02-22T04:32:37.472Z,7.3
2017-02-22T04:32:56.118Z,7.3
2017-02-22T04:33:14.759Z,7.3
2017-02-22T04:33:33.396Z,7.3
2017-02-22T04:33:52.037Z,7.3
2017-02-22T04:34:10.677Z,7.3
2017-02-22T04:34:29.346Z,7.3
2017-02-22T04:34:47.980Z,7.3
2017-02-22T04:35:06.627Z,7.3
2017-02-22T04:35:25.267Z,7.3
2017-02-22T04:35:43.913Z,7.3
2017-02-22T04:36:02.551Z,7.3
2017-02-22T04:36:21.181Z,7.3
2017-02-22T04:36:39.842Z,7.3
2017-02-22T04:36:58.495Z,7.3
2017-02-22T04:37:17.140Z,7.4
2017-02-22T04:37:35.779Z,7.4
2017-02-22T04:37:54.433Z,7.4
2017-02-22T04:38:13.079Z,7.4
2017-02-22T04:38:31.725Z,7.4
2017-02-22T04:38:50.362Z,7.4
2017-02-22T04:39:09.002Z,7.4
2017-02-22T04:39:27.677Z,7.4
2017-02-22T04:39:46.325Z,7.3
2017-02-22T04:40:04.969Z,7.3
2017-02-22T04:40:23.609Z,7.3
2017-02-22T04:40:42.247Z,7.3
2017-02-22T04:41:00.893Z,7.3
2017-02-22T04:41:19.533Z,7.3
2017-02-22T04:41:38.174Z,7.3
2017-02-22T04:41:56.841Z,7.3
2017-02-22T04:42:15.513Z,7.4
2017-02-22T04:42:34.174Z,7.3
2017-02-22T04:42:52.811Z,7.4
2017-02-22T04:43:11.447Z,7.4
2017-02-22T04:43:30.086Z,7.4
2017-02-22T04:43:48.726Z,7.4
2017-02-22T04:44:07.369Z,7.4
2017-02-22T04:44:26.006Z,7.4
2017-02-22T04:44:44.659Z,7.4
2017-02-22T04:45:03.301Z,7.4
2017-02-22T04:45:21.937Z,7.4
2017-02-22T04:45:40.577Z,7.4
2017-02-22T04:45:59.241Z,7.4
2017-02-22T04:46:17.885Z,7.4
2017-02-22T04:46:36.543Z,7.4
2017-02-22T04:46:55.184Z,7.4
2017-02-22T04:47:13.848Z,7.4
2017-02-22T04:47:32.493Z,7.4
2017-02-22T04:47:51.136Z,7.4
2017-02-22T04:48:09.777Z,7.4
2017-02-22T04:48:28.436Z,7.4
2017-02-22T04:48:47.074Z,7.4
2017-02-22T04:49:05.712Z,7.4
2017-02-22T04:49:24.383Z,7.4
2017-02-22T04:49:43.029Z,7.4
2017-02-22T04:50:01.680Z,7.3
2017-02-22T04:50:20.324Z,7.4
2017-02-22T04:50:38.966Z,7.3
2017-02-22T04:50:57.645Z,7.3
2017-02-22T04:51:16.283Z,7.3
2017-02-22T04:51:34.920Z,7.3
2017-02-22T04:51:53.555Z,7.3
2017-02-22T04:52:12.194Z,7.3
2017-02-22T04:52:30.854Z,7.3
2017-02-22T04:52:49.495Z,7.3
2017-02-22T04:53:08.139Z,7.3
2017-02-22T04:53:26.783Z,7.3
2017-02-22T04:53:45.425Z,7.3
2017-02-22T04:54:04.074Z,7.3
2017-02-22T04:54:22.732Z,7.3
2017-02-22T04:54:41.375Z,7.4
2017-02-22T04:55:00.020Z,7.4
2017-02-22T04:55:18.669Z,7.3
2017-02-22T04:55:37.321Z,7.3
2017-02-22T04:55:55.971Z,7.3
2017-02-22T04:56:14.615Z,7.4
2017-02-22T04:56:33.251Z,7.4
2017-02-22T04:56:51.888Z,7.4
2017-02-22T04:57:10.527Z,7.4
2017-02-22T04:57:29.185Z,7.4
2017-02-22T04:57:47.830Z,7.4
2017-02-22T04:58:06.478Z,7.4
2017-02-22T04:58:25.117Z,7.4
2017-02-22T04:58:43.749Z,7.4
2017-02-22T04:59:02.390Z,7.4
2017-02-22T04:59:21.027Z,7.4
2017-02-22T04:59:39.665Z,7.4
2017-02-22T04:59:58.321Z,7.4
2017-02-22T05:00:16.966Z,7.4
2017-02-22T05:00:35.609Z,7.4
2017-02-22T05:00:54.277Z,7.4
2017-02-22T05:01:12.914Z,7.4
2017-02-22T05:01:31.553Z,7.4
2017-02-22T05:01:50.200Z,7.4
2017-02-22T05:02:08.842Z,7.4
2017-02-22T05:02:27.492Z,7.4
2017-02-22T05:02:46.144Z,7.4
2017-02-22T05:03:04.788Z,7.4
2017-02-22T05:03:23.430Z,7.4
2017-02-22T05:03:42.077Z,7.4
2017-02-22T05:04:00.722Z,7.4
2017-02-22T05:04:19.388Z,7.4
2017-02-22T05:04:38.023Z,7.4
2017-02-22T05:04:56.661Z,7.4
2017-02-22T05:05:15.298Z,7.4
2017-02-22T05:05:33.937Z,7.4
2017-02-22T05:05:52.573Z,7.4
2017-02-22T05:06:11.212Z,7.4
2017-02-22T05:06:29.854Z,7.4
2017-02-22T05:06:48.495Z,7.4
2017-02-22T05:07:07.141Z,7.4
2017-02-22T05:07:25.778Z,7.4
2017-02-22T05:07:44.435Z,7.4
2017-02-22T05:08:03.091Z,7.4
2017-02-22T05:08:21.751Z,7.4
2017-02-22T05:08:40.394Z,7.4
2017-02-22T05:08:59.048Z,7.4
2017-02-22T05:09:17.724Z,7.4
2017-02-22T05:09:36.365Z,7.4
2017-02-22T05:09:55.009Z,7.4
2017-02-22T05:10:13.647Z,7.4
2017-02-22T05:10:32.285Z,7.4
2017-02-22T05:10:50.922Z,7.4
2017-02-22T05:11:09.559Z,7.4
2017-02-22T05:11:28.201Z,7.4
2017-02-22T05:11:46.831Z,7.4
2017-02-22T05:12:05.475Z,7.4
2017-02-22T05:12:24.131Z,7.4
2017-02-22T05:12:42.774Z,7.4
2017-02-22T05:13:01.406Z,7.4
2017-02-22T05:13:20.053Z,7.4
2017-02-22T05:13:38.710Z,7.4
2017-02-22T05:13:57.360Z,7.4
2017-02-22T05:14:16.004Z,7.4
2017-02-22T05:14:34.644Z,7.4
2017-02-22T05:14:53.287Z,7.4
2017-02-22T05:15:11.953Z,7.4
2017-02-22T05:15:30.608Z,7.4
2017-02-22T05:15:49.274Z,7.4
2017-02-22T05:16:07.925Z,7.4
2017-02-22T05:16:26.566Z,7.4
2017-02-22T05:16:45.214Z,7.3
2017-02-22T05:17:03.860Z,7.3
2017-02-22T05:17:22.522Z,7.3
2017-02-22T05:17:41.176Z,7.3
2017-02-22T05:17:59.823Z,7.3
2017-02-22T05:18:18.458Z,7.3
2017-02-22T05:18:37.096Z,7.3
2017-02-22T05:18:55.748Z,7.3
2017-02-22T05:19:14.414Z,7.3
2017-02-22T05:19:33.062Z,7.4
2017-02-22T05:19:51.702Z,7.3
2017-02-22T05:20:10.351Z,7.3
2017-02-22T05:20:28.991Z,7.3
2017-02-22T05:20:47.672Z,7.3
2017-02-22T05:21:06.323Z,7.3
2017-02-22T05:21:24.965Z,7.3
2017-02-22T05:21:43.605Z,7.3
2017-02-22T05:22:02.243Z,7.3
2017-02-22T05:22:20.886Z,7.3
2017-02-22T05:22:39.538Z,7.3
2017-02-22T05:22:58.179Z,7.3
2017-02-22T05:23:16.823Z,7.2
2017-02-22T05:23:35.466Z,7.2
2017-02-22T05:23:54.115Z,7.2
2017-02-22T05:24:12.763Z,7.2
2017-02-22T05:24:31.401Z,7.2
2017-02-22T05:24:50.041Z,7.2
2017-02-22T05:25:08.681Z,7.3
2017-02-22T05:25:27.340Z,7.3
2017-02-22T05:25:45.991Z,7.3
2017-02-22T05:26:04.633Z,7.3
2017-02-22T05:26:23.271Z,7.3
2017-02-22T05:26:41.914Z,7.3
2017-02-22T05:27:00.556Z,7.3
2017-02-22T05:27:19.224Z,7.3
2017-02-22T05:27:37.877Z,7.3
2017-02-22T05:27:56.521Z,7.3
2017-02-22T05:28:15.160Z,7.3
2017-02-22T05:28:33.799Z,7.3
2017-02-22T05:28:52.449Z,7.3
2017-02-22T05:29:11.094Z,7.4
2017-02-22T05:29:29.752Z,7.4
2017-02-22T05:29:48.415Z,7.4
2017-02-22T05:30:07.052Z,7.4
2017-02-22T05:30:25.708Z,7.4
2017-02-22T05:30:44.383Z,7.4
2017-02-22T05:31:03.023Z,7.4
2017-02-22T05:31:21.667Z,7.4
2017-02-22T05:31:40.319Z,7.4
2017-02-22T05:31:58.956Z,7.4
2017-02-22T05:32:17.626Z,7.4
2017-02-22T05:32:36.271Z,7.4
2017-02-22T05:32:54.914Z,7.4
2017-02-22T05:33:13.553Z,7.4
2017-02-22T05:33:32.192Z,7.4
2017-02-22T05:33:50.836Z,7.4
2017-02-22T05:34:09.479Z,7.4
2017-02-22T05:34:28.118Z,7.4
2017-02-22T05:34:46.773Z,7.4
2017-02-22T05:35:05.414Z,7.4
2017-02-22T05:35:24.064Z,7.4
2017-02-22T05:35:42.728Z,7.4
2017-02-22T05:36:01.369Z,7.4
2017-02-22T05:36:20.015Z,7.4
2017-02-22T05:36:38.653Z,7.4
2017-02-22T05:36:57.293Z,7.4
2017-02-22T05:37:15.932Z,7.4
2017-02-22T05:37:34.574Z,7.4
2017-02-22T05:37:53.212Z,7.4
2017-02-22T05:38:11.854Z,7.4
2017-02-22T05:38:30.498Z,7.4
2017-02-22T05:38:49.155Z,7.4
2017-02-22T05:39:07.802Z,7.4
2017-02-22T05:39:26.449Z,7.4
2017-02-22T05:39:45.090Z,7.4
2017-02-22T05:40:03.747Z,7.4
2017-02-22T05:40:22.400Z,7.4
2017-02-22T05:40:41.037Z,7.4
2017-02-22T05:40:59.681Z,7.4
2017-02-22T05:41:18.329Z,7.4
2017-02-22T05:41:36.971Z,7.4
2017-02-22T05:41:55.610Z,7.4
2017-02-22T05:42:14.279Z,7.4
2017-02-22T05:42:32.928Z,7.5
2017-02-22T05:42:51.574Z,7.5
2017-02-22T05:43:10.213Z,7.5
2017-02-22T05:43:28.852Z,7.5
2017-02-22T05:43:47.493Z,7.5
2017-02-22T05:44:06.136Z,7.5
2017-02-22T05:44:24.780Z,7.5
2017-02-22T05:44:43.416Z,7.5
2017-02-22T05:45:02.054Z,7.5
2017-02-22T05:45:20.707Z,7.5
2017-02-22T05:45:39.384Z,7.5
2017-02-22T05:45:58.031Z,7.5
2017-02-22T05:46:16.685Z,7.5
2017-02-22T05:46:35.321Z,7.5
2017-02-22T05:46:53.969Z,7.5
2017-02-22T05:47:12.661Z,7.5
2017-02-22T05:47:31.297Z,7.5
2017-02-22T05:47:49.933Z,7.5
2017-02-22T05:48:08.601Z,7.5
2017-02-22T05:48:27.253Z,7.5
2017-02-22T05:48:45.891Z,7.5
2017-02-22T05:49:04.527Z,7.5
2017-02-22T05:49:23.162Z,7.5
2017-02-22T05:49:41.800Z,7.5
2017-02-22T05:50:00.445Z,7.5
2017-02-22T05:50:19.097Z,7.5
2017-02-22T05:50:37.760Z,7.5
2017-02-22T05:50:56.397Z,7.5
2017-02-22T05:51:15.033Z,7.5
2017-02-22T05:51:33.686Z,7.5
2017-02-22T05:51:52.332Z,7.5
2017-02-22T05:52:10.969Z,7.5
2017-02-22T05:52:29.610Z,7.5
2017-02-22T05:52:48.245Z,7.5
2017-02-22T05:53:06.881Z,7.5
2017-02-22T05:53:25.518Z,7.5
2017-02-22T05:53:44.183Z,7.5
2017-02-22T05:54:02.825Z,7.5
2017-02-22T05:54:21.464Z,7.5
2017-02-22T05:54:40.109Z,7.5
2017-02-22T05:54:58.746Z,7.5
2017-02-22T05:55:17.390Z,7.5
2017-02-22T05:55:36.032Z,7.5
2017-02-22T05:55:54.683Z,7.5
2017-02-22T05:56:13.322Z,7.5
2017-02-22T05:56:31.960Z,7.5
2017-02-22T05:56:50.603Z,7.5
2017-02-22T05:57:09.272Z,7.5
2017-02-22T05:57:27.910Z,7.5
2017-02-22T05:57:46.545Z,7.5
2017-02-22T05:58:05.180Z,7.5
2017-02-22T05:58:23.836Z,7.5
2017-02-22T05:58:42.477Z,7.5